Terminal Aerodrome Forecast
Issued by NWS Twin Cities, MN

Home | Current Version | Previous Version | Text Only | Print | Product List | Glossary On
Versions: 1 2 3 4 5 6 7 8 9 10 11 12 13 14 15
345
FTUS43 KMPX 282103 AAA
TAFSTC
TAF AMD
KSTC 282103Z 2821/2918 24012KT P6SM SCT020 BKN030
     FM282300 29013G21KT P6SM SCT025 BKN040
     FM290300 27009KT P6SM BKN015
     FM290800 28008KT P6SM OVC007
     FM291500 34007KT P6SM BKN015=

USA.gov is the U.S. government's official web portal to all federal, state and local government web resources and services.